createdAt,value
2019-04-23T00:01:58.360Z,3.63
2019-04-23T00:04:23.951Z,3.60
2019-04-23T00:07:15.796Z,3.27
2019-04-23T00:09:27.430Z,3.50
2019-04-23T00:12:00.317Z,3.73
2019-04-23T00:14:41.016Z,3.83
2019-04-23T00:16:57.755Z,3.57
2019-04-23T00:19:32.934Z,3.30
2019-04-23T00:22:17.934Z,3.60
2019-04-23T00:27:24.090Z,3.07
2019-04-23T00:29:53.029Z,3.60
2019-04-23T00:34:47.343Z,3.20
2019-04-23T00:37:37.363Z,3.13
2019-04-23T00:39:46.784Z,3.27
2019-04-23T00:42:25.070Z,3.43
2019-04-23T00:44:54.386Z,2.80
2019-04-23T00:47:25.712Z,3.00
2019-04-23T00:50:00.010Z,2.83
2019-04-23T00:52:24.354Z,3.33
2019-04-23T00:54:57.496Z,3.40
2019-04-23T00:57:29.315Z,3.30
2019-04-23T01:02:23.812Z,3.67
2019-04-23T01:05:01.288Z,3.40
2019-04-23T01:07:24.320Z,3.30
2019-04-23T01:12:46.459Z,2.73
2019-04-23T01:15:14.150Z,3.40
2019-04-23T01:20:22.612Z,3.20
2019-04-23T01:22:31.809Z,3.30
2019-04-23T01:25:28.672Z,3.60
2019-04-23T01:28:13.896Z,3.60
2019-04-23T01:30:48.489Z,4.83
2019-04-23T01:33:18.418Z,3.70
2019-04-23T01:35:51.188Z,3.60
2019-04-23T01:38:21.918Z,3.20
2019-04-23T01:40:45.910Z,3.10
2019-04-23T01:43:38.223Z,3.03
2019-04-23T01:45:47.963Z,3.17
2019-04-23T01:48:18.494Z,3.87
2019-04-23T01:53:27.327Z,2.70
2019-04-23T01:55:51.141Z,3.07
2019-04-23T02:00:53.317Z,2.83
2019-04-23T02:03:31.847Z,3.30
2019-04-23T02:06:00.337Z,2.90
2019-04-23T02:08:28.301Z,2.93
2019-04-23T02:13:33.930Z,3.50
2019-04-23T02:16:00.047Z,2.90
2019-04-23T02:18:33.901Z,2.83
2019-04-23T02:21:02.449Z,2.80
2019-04-23T02:23:36.514Z,3.17
2019-04-23T02:26:07.877Z,2.80
2019-04-23T02:28:59.122Z,2.73
2019-04-23T02:36:07.787Z,3.03
2019-04-23T02:41:20.215Z,3.50
2019-04-23T02:43:44.368Z,3.63
2019-04-23T02:46:09.228Z,3.50
2019-04-23T02:48:52.593Z,3.70
2019-04-23T02:51:18.098Z,3.70
2019-04-23T02:56:30.900Z,3.80
2019-04-23T02:58:55.041Z,3.63
2019-04-23T03:01:26.830Z,3.43
2019-04-23T03:06:22.812Z,3.37
2019-04-23T03:11:25.186Z,3.70
2019-04-23T03:14:00.519Z,2.97
2019-04-23T03:16:45.424Z,3.10
2019-04-23T03:19:25.563Z,3.40
2019-04-23T03:22:09.898Z,3.07
2019-04-23T03:27:29.237Z,3.60
2019-04-23T03:30:16.250Z,3.10
2019-04-23T03:37:35.033Z,3.60
2019-04-23T03:42:37.255Z,3.20
2019-04-23T03:45:08.150Z,3.30
2019-04-23T03:50:04.580Z,3.40
2019-04-23T03:52:35.399Z,3.20
2019-04-23T03:55:04.055Z,3.10
2019-04-23T03:57:31.058Z,3.40
2019-04-23T04:05:00.680Z,3.10
2019-04-23T04:10:05.048Z,3.47
2019-04-23T04:12:39.913Z,3.63
2019-04-23T04:17:57.011Z,3.60
2019-04-23T04:20:19.822Z,3.73
2019-04-23T04:22:46.513Z,3.27
2019-04-23T04:25:19.304Z,3.67
2019-04-23T04:27:58.155Z,3.70
2019-04-23T04:30:10.574Z,3.40
2019-04-23T04:32:54.602Z,3.50
2019-04-23T04:38:10.750Z,3.93
2019-04-23T04:40:23.380Z,3.63
2019-04-23T04:42:58.649Z,3.73
2019-04-23T04:50:35.214Z,3.43
2019-04-23T04:57:52.662Z,3.97
2019-04-23T05:00:32.604Z,3.57
2019-04-23T05:05:55.515Z,3.70
2019-04-23T05:07:50.203Z,3.67
2019-04-23T05:11:26.298Z,3.40
2019-04-23T05:13:03.559Z,3.70
2019-04-23T05:18:08.297Z,3.87
2019-04-23T05:23:06.103Z,3.97
2019-04-23T05:25:24.274Z,3.70
2019-04-23T05:33:09.990Z,3.17
2019-04-23T05:35:46.666Z,3.90
2019-04-23T05:38:18.587Z,4.43
2019-04-23T05:43:08.240Z,3.90
2019-04-23T05:45:34.473Z,3.30
2019-04-23T05:48:13.438Z,4.13
2019-04-23T05:50:51.872Z,3.93
2019-04-23T05:55:43.078Z,3.83
2019-04-23T05:58:16.959Z,3.97
2019-04-23T06:00:44.908Z,4.30
2019-04-23T06:03:19.513Z,4.17
2019-04-23T06:05:49.701Z,4.47
2019-04-23T06:08:18.719Z,4.20
2019-04-23T06:10:55.609Z,4.50
2019-04-23T06:13:26.438Z,4.80
2019-04-23T06:15:52.377Z,4.73
2019-04-23T06:18:24.512Z,4.80
2019-04-23T06:20:55.865Z,4.30
2019-04-23T06:23:30.382Z,4.80
2019-04-23T06:26:15.593Z,4.53
2019-04-23T06:28:27.080Z,5.27
2019-04-23T06:33:27.101Z,4.10
2019-04-23T06:36:01.283Z,4.47
2019-04-23T06:38:41.258Z,3.67
2019-04-23T06:41:06.209Z,4.10
2019-04-23T06:43:33.142Z,3.60
2019-04-23T06:46:01.338Z,3.53
2019-04-23T06:51:04.820Z,3.97
2019-04-23T06:53:29.197Z,4.80
2019-04-23T06:56:06.800Z,4.60
2019-04-23T07:01:05.248Z,4.87
2019-04-23T07:03:38.326Z,5.27
2019-04-23T07:09:03.158Z,4.50
2019-04-23T07:11:17.178Z,3.77
2019-04-23T07:13:54.753Z,4.67
2019-04-23T07:16:09.912Z,4.07
2019-04-23T07:18:59.124Z,4.17
2019-04-23T07:23:53.922Z,4.37
2019-04-23T07:26:26.175Z,4.37
2019-04-23T07:28:50.202Z,3.83
2019-04-23T07:31:21.637Z,3.97
2019-04-23T07:33:52.816Z,4.17
2019-04-23T07:36:27.584Z,3.97
2019-04-23T07:39:01.472Z,4.40
2019-04-23T07:41:47.971Z,4.53
2019-04-23T07:44:28.153Z,4.73
2019-04-23T07:49:28.524Z,4.77
2019-04-23T07:52:04.824Z,4.70
2019-04-23T07:54:34.724Z,4.47
2019-04-23T07:57:03.029Z,4.30
2019-04-23T07:59:37.206Z,5.70
2019-04-23T08:02:03.453Z,4.80
2019-04-23T08:04:37.332Z,4.60
2019-04-23T08:07:00.840Z,4.83
2019-04-23T08:09:33.854Z,4.83
2019-04-23T08:14:32.975Z,5.00
2019-04-23T08:17:07.108Z,4.97
2019-04-23T08:19:47.862Z,5.00
2019-04-23T08:22:12.481Z,4.80
2019-04-23T08:24:45.381Z,4.53
2019-04-23T08:27:18.591Z,5.00
2019-04-23T08:29:47.722Z,4.83
2019-04-23T08:32:21.309Z,4.80
2019-04-23T08:34:56.339Z,5.10
2019-04-23T08:37:46.673Z,5.67
2019-04-23T08:39:46.443Z,4.77
2019-04-23T08:45:07.534Z,4.97
2019-04-23T08:47:33.116Z,5.03
2019-04-23T08:50:09.199Z,5.60
2019-04-23T08:52:37.057Z,4.70
2019-04-23T08:55:13.890Z,5.10
2019-04-23T08:57:39.781Z,5.47
2019-04-23T09:00:09.337Z,5.03
2019-04-23T09:02:42.527Z,5.20
2019-04-23T09:07:50.023Z,5.50
2019-04-23T09:10:15.843Z,5.60
2019-04-23T09:12:45.641Z,4.80
2019-04-23T09:15:16.795Z,4.97
2019-04-23T09:17:47.752Z,5.27
2019-04-23T09:22:45.180Z,4.93
2019-04-23T09:25:31.884Z,5.33
2019-04-23T09:27:44.183Z,5.40
2019-04-23T09:30:18.695Z,5.47
2019-04-23T09:32:54.499Z,5.00
2019-04-23T09:35:36.359Z,4.53
2019-04-23T09:38:11.296Z,5.27
2019-04-23T09:43:36.744Z,4.80
2019-04-23T09:46:17.649Z,4.27
2019-04-23T09:48:50.964Z,5.30
2019-04-23T09:51:17.294Z,5.50
2019-04-23T09:53:45.741Z,5.20
2019-04-23T09:56:14.686Z,4.47
2019-04-23T09:58:45.085Z,5.53
2019-04-23T10:03:40.613Z,5.20
2019-04-23T10:06:06.351Z,4.83
2019-04-23T10:08:35.666Z,5.17
2019-04-23T10:11:00.409Z,5.50
2019-04-23T10:13:29.690Z,5.53
2019-04-23T10:16:00.114Z,5.17
2019-04-23T10:18:29.242Z,5.80
2019-04-23T10:20:59.356Z,5.67
2019-04-23T10:23:31.452Z,4.40
2019-04-23T10:26:01.747Z,4.93
2019-04-23T10:28:33.791Z,4.67
2019-04-23T10:31:02.939Z,5.40
2019-04-23T10:33:32.017Z,4.90
2019-04-23T10:36:08.521Z,5.33
2019-04-23T10:38:32.734Z,5.10
2019-04-23T10:41:04.404Z,5.13
2019-04-23T10:43:38.378Z,5.40
2019-04-23T10:46:29.695Z,5.33
2019-04-23T10:51:41.310Z,4.43
2019-04-23T10:54:29.153Z,4.83
2019-04-23T10:56:44.950Z,5.53
2019-04-23T11:07:26.942Z,5.20
2019-04-23T11:10:03.456Z,4.50
2019-04-23T11:12:42.426Z,5.00
2019-04-23T11:15:11.187Z,4.10
2019-04-23T11:17:45.909Z,5.30
2019-04-23T11:20:11.255Z,4.23
2019-04-23T11:22:42.466Z,4.80
2019-04-23T11:27:36.245Z,4.87
2019-04-23T11:30:11.902Z,4.67
2019-04-23T11:32:53.820Z,4.87
2019-04-23T11:35:14.315Z,4.57
2019-04-23T11:37:50.482Z,5.27
2019-04-23T11:40:08.869Z,4.90
2019-04-23T11:42:47.746Z,4.90
2019-04-23T11:45:19.255Z,5.33
2019-04-23T11:50:18.914Z,4.80
2019-04-23T11:55:17.561Z,4.73
2019-04-23T12:00:17.643Z,4.90
2019-04-23T12:02:51.149Z,4.23
2019-04-23T12:08:11.659Z,3.03
2019-04-23T12:11:24.022Z,3.83
2019-04-23T12:13:26.686Z,3.63
2019-04-23T12:15:53.855Z,3.17
2019-04-23T12:20:48.759Z,3.67
2019-04-23T12:23:41.248Z,3.30
2019-04-23T12:26:03.518Z,3.90
2019-04-23T12:28:31.360Z,4.40
2019-04-23T12:30:57.330Z,4.03
2019-04-23T12:33:42.663Z,3.47
2019-04-23T12:36:33.903Z,3.30
2019-04-23T12:38:48.988Z,3.37
2019-04-23T12:41:27.132Z,3.00
2019-04-23T12:43:47.399Z,4.30
2019-04-23T12:46:26.019Z,4.30
2019-04-23T12:48:56.733Z,3.80
2019-04-23T12:51:28.282Z,3.40
2019-04-23T12:53:49.340Z,3.70
2019-04-23T12:56:31.462Z,3.20
2019-04-23T12:58:47.735Z,3.10
2019-04-23T13:01:22.846Z,3.60
2019-04-23T13:03:47.414Z,3.90
2019-04-23T13:06:20.402Z,3.63
2019-04-23T13:11:30.065Z,3.30
2019-04-23T13:14:00.826Z,2.97
2019-04-23T13:16:40.605Z,3.60
2019-04-23T13:19:05.015Z,3.03
2019-04-23T13:23:54.710Z,3.30
2019-04-23T13:26:31.425Z,3.53
2019-04-23T13:29:11.404Z,3.00
2019-04-23T13:31:30.097Z,2.97
2019-04-23T13:34:06.932Z,2.77
2019-04-23T13:36:39.877Z,2.70
2019-04-23T13:39:10.208Z,2.33
2019-04-23T13:41:31.614Z,2.97
2019-04-23T13:44:00.134Z,2.97
2019-04-23T13:46:34.441Z,2.40
2019-04-23T13:49:07.411Z,2.60
2019-04-23T13:51:42.741Z,2.23
2019-04-23T14:01:39.575Z,2.73
2019-04-23T14:04:33.332Z,2.87
2019-04-23T14:06:52.749Z,2.53
2019-04-23T14:09:31.471Z,2.00
2019-04-23T14:11:45.178Z,2.30
2019-04-23T14:14:36.202Z,2.67
2019-04-23T14:17:00.087Z,2.60
2019-04-23T14:19:23.340Z,2.27
2019-04-23T14:22:13.718Z,2.30
2019-04-23T14:24:26.865Z,2.83
2019-04-23T14:27:01.164Z,2.60
2019-04-23T14:29:28.479Z,2.10
2019-04-23T14:34:34.824Z,2.03
2019-04-23T14:37:06.202Z,2.30
2019-04-23T14:39:37.377Z,2.10
2019-04-23T14:42:20.574Z,2.20
2019-04-23T14:44:54.019Z,2.03
2019-04-23T14:47:24.385Z,2.10
2019-04-23T14:50:28.153Z,2.10
2019-04-23T14:52:45.923Z,1.90
2019-04-23T14:57:45.750Z,2.30
2019-04-23T15:00:09.819Z,2.10
2019-04-23T15:02:47.582Z,1.90
2019-04-23T15:05:13.507Z,1.90
2019-04-23T15:07:36.253Z,2.10
2019-04-23T15:10:18.564Z,1.90
2019-04-23T15:12:36.621Z,2.80
2019-04-23T15:15:18.017Z,2.50
2019-04-23T15:17:40.593Z,3.90
2019-04-23T15:20:11.615Z,3.70
2019-04-23T15:22:53.235Z,2.40
2019-04-23T15:28:06.226Z,2.37
2019-04-23T15:30:04.102Z,2.17
2019-04-23T15:32:57.595Z,2.17
2019-04-23T15:35:25.352Z,2.10
2019-04-23T15:38:10.873Z,2.10
2019-04-23T15:40:15.156Z,2.07
2019-04-23T15:42:52.068Z,2.00
2019-04-23T15:45:16.889Z,2.07
2019-04-23T15:47:52.485Z,2.03
2019-04-23T15:50:23.572Z,3.00
2019-04-23T15:52:55.377Z,2.23
2019-04-23T15:55:35.086Z,2.40
2019-04-23T16:00:17.844Z,3.17
2019-04-23T16:02:23.670Z,2.37
2019-04-23T16:04:53.191Z,1.83
2019-04-23T16:07:44.121Z,2.83
2019-04-23T16:10:25.158Z,1.80
2019-04-23T16:12:56.929Z,1.90
2019-04-23T16:15:21.225Z,1.20
2019-04-23T16:18:06.552Z,1.50
2019-04-23T16:23:09.643Z,1.90
2019-04-23T16:25:26.492Z,1.90
2019-04-23T16:28:04.115Z,1.77
2019-04-23T16:30:40.814Z,1.60
2019-04-23T16:36:01.908Z,1.53
2019-04-23T16:38:32.229Z,1.47
2019-04-23T16:41:07.695Z,1.80
2019-04-23T16:45:51.768Z,1.40
2019-04-23T16:56:04.263Z,1.53
2019-04-23T16:58:42.078Z,1.10
2019-04-23T17:01:05.491Z,1.87
2019-04-23T17:03:31.919Z,2.30
2019-04-23T17:06:05.641Z,1.83
2019-04-23T17:08:45.322Z,2.60
2019-04-23T17:11:13.036Z,2.30
2019-04-23T17:16:08.204Z,2.57
2019-04-23T17:18:32.011Z,2.43
2019-04-23T17:20:58.237Z,2.50
2019-04-23T17:23:39.272Z,2.33
2019-04-23T17:26:06.610Z,2.40
2019-04-23T17:28:27.989Z,2.13
2019-04-23T17:31:18.384Z,2.50
2019-04-23T17:38:55.086Z,2.40
2019-04-23T17:44:18.820Z,2.37
2019-04-23T17:46:47.062Z,2.10
2019-04-23T17:49:15.339Z,2.20
2019-04-23T17:51:44.447Z,2.73
2019-04-23T17:56:58.103Z,2.43
2019-04-23T17:59:38.387Z,2.00
2019-04-23T18:01:54.393Z,2.67
2019-04-23T18:04:22.650Z,2.47
2019-04-23T18:09:18.401Z,1.90
2019-04-23T18:11:52.562Z,2.70
2019-04-23T18:14:14.221Z,2.50
2019-04-23T18:17:03.652Z,2.47
2019-04-23T18:19:16.603Z,2.47
2019-04-23T18:27:00.629Z,2.10
2019-04-23T18:29:40.369Z,2.10
2019-04-23T18:32:16.720Z,2.10
2019-04-23T18:34:59.640Z,1.93
2019-04-23T18:37:17.816Z,2.00
2019-04-23T18:39:59.588Z,2.67
2019-04-23T18:42:25.753Z,2.53
2019-04-23T18:47:25.237Z,2.10
2019-04-23T18:49:45.375Z,2.00
2019-04-23T18:52:25.953Z,1.73
2019-04-23T18:54:48.051Z,1.57
2019-04-23T18:57:12.930Z,2.20
2019-04-23T18:59:50.554Z,1.80
2019-04-23T19:05:07.237Z,1.70
2019-04-23T19:10:28.418Z,1.83
2019-04-23T19:18:04.154Z,1.93
2019-04-23T19:25:38.652Z,1.70
2019-04-23T19:28:29.107Z,1.70
2019-04-23T19:31:16.445Z,1.60
2019-04-23T19:33:41.870Z,2.07
2019-04-23T19:36:14.178Z,1.67
2019-04-23T19:38:36.482Z,1.77
2019-04-23T19:46:12.721Z,1.70
2019-04-23T19:48:46.028Z,1.30
2019-04-23T19:53:53.635Z,1.60
2019-04-23T19:58:51.809Z,2.13
2019-04-23T20:01:18.261Z,1.90
2019-04-23T20:03:43.502Z,1.50
2019-04-23T20:06:08.085Z,1.40
2019-04-23T20:09:01.351Z,1.70
2019-04-23T20:18:52.401Z,1.47
2019-04-23T20:21:31.865Z,1.87
2019-04-23T20:26:23.391Z,1.23
2019-04-23T20:33:22.353Z,1.70
2019-04-23T20:34:24.748Z,1.63
2019-04-23T20:36:46.551Z,1.70
2019-04-23T20:39:16.341Z,2.00
2019-04-23T20:44:35.280Z,1.67
2019-04-23T20:47:10.113Z,1.30
2019-04-23T20:49:38.786Z,1.20
2019-04-23T20:57:25.247Z,1.57
2019-04-23T20:59:57.233Z,1.83
2019-04-23T21:02:47.757Z,1.00
2019-04-23T21:05:03.604Z,1.27
2019-04-23T21:07:40.679Z,1.03
2019-04-23T21:10:09.192Z,1.30
2019-04-23T21:12:42.720Z,1.13
2019-04-23T21:15:05.350Z,1.50
2019-04-23T21:17:40.663Z,1.13
2019-04-23T21:20:10.568Z,1.10
2019-04-23T21:22:31.041Z,1.03
2019-04-23T21:25:14.405Z,1.00
2019-04-23T21:30:03.569Z,1.40
2019-04-23T21:32:44.181Z,1.00
2019-04-23T21:35:16.832Z,1.20
2019-04-23T21:37:49.779Z,1.10
2019-04-23T21:40:48.438Z,1.03
2019-04-23T21:42:55.789Z,1.00
2019-04-23T21:45:26.228Z,1.10
2019-04-23T21:48:06.526Z,1.23
2019-04-23T21:52:54.911Z,0.97
2019-04-23T21:55:31.078Z,0.87
2019-04-23T22:00:41.217Z,0.70
2019-04-23T22:03:06.742Z,1.30
2019-04-23T22:05:39.975Z,0.83
2019-04-23T22:08:06.945Z,1.07
2019-04-23T22:10:32.989Z,1.33
2019-04-23T22:13:24.633Z,1.03
2019-04-23T22:15:45.943Z,1.20
2019-04-23T22:17:59.768Z,1.27
2019-04-23T22:23:10.691Z,1.20
2019-04-23T22:25:48.910Z,0.80
2019-04-23T22:28:10.155Z,0.80
2019-04-23T22:30:49.963Z,1.20
2019-04-23T22:33:14.080Z,1.50
2019-04-23T22:35:47.945Z,1.00
2019-04-23T22:38:12.997Z,1.40
2019-04-23T22:40:45.691Z,1.10
2019-04-23T22:45:52.543Z,1.20
2019-04-23T22:48:13.869Z,1.10
2019-04-23T22:50:56.797Z,1.13
2019-04-23T22:53:09.184Z,1.27
2019-04-23T22:56:01.672Z,1.40
2019-04-23T22:58:09.648Z,1.37
2019-04-23T23:01:14.307Z,1.07
2019-04-23T23:03:41.984Z,1.20
2019-04-23T23:06:30.903Z,0.90
2019-04-23T23:08:57.448Z,0.97
2019-04-23T23:11:08.834Z,1.20
2019-04-23T23:13:53.379Z,0.90
2019-04-23T23:16:06.814Z,1.00
2019-04-23T23:18:40.815Z,0.70
2019-04-23T23:21:11.884Z,0.97
2019-04-23T23:23:46.517Z,0.80
2019-04-23T23:26:33.783Z,0.87
2019-04-23T23:31:10.258Z,1.07
2019-04-23T23:33:47.140Z,0.93
2019-04-23T23:39:06.273Z,1.07
2019-04-23T23:41:33.795Z,1.10
2019-04-23T23:48:51.331Z,1.30
2019-04-23T23:51:27.536Z,1.60
2019-04-23T23:53:58.088Z,1.20
2019-04-23T23:58:58.310Z,1.20
